createdAt,value
2023-04-17T00:01:44.198Z,11.14
2023-04-17T00:04:13.079Z,11.12
2023-04-17T00:06:43.201Z,11.00
2023-04-17T00:09:10.934Z,11.10
2023-04-17T00:11:38.528Z,10.98
2023-04-17T00:14:06.111Z,10.95
2023-04-17T00:16:33.431Z,10.87
2023-04-17T00:19:00.808Z,10.99
2023-04-17T00:21:29.975Z,10.83
2023-04-17T00:23:57.251Z,11.00
2023-04-17T00:26:24.429Z,10.88
2023-04-17T00:28:51.944Z,10.91
2023-04-17T00:31:19.314Z,10.93
2023-04-17T00:33:46.705Z,10.98
2023-04-17T00:36:15.406Z,10.89
2023-04-17T00:38:42.692Z,10.79
2023-04-17T00:41:09.985Z,10.79
2023-04-17T00:43:37.296Z,10.87
2023-04-17T00:46:04.858Z,10.82
2023-04-17T00:48:34.161Z,10.96
2023-04-17T00:51:03.256Z,10.82
2023-04-17T00:53:31.574Z,10.69
2023-04-17T00:56:00.689Z,10.74
2023-04-17T00:58:27.836Z,10.68
2023-04-17T01:00:55.182Z,10.54
2023-04-17T01:03:23.147Z,10.62
2023-04-17T01:05:51.669Z,10.59
2023-04-17T01:08:19.442Z,10.60
2023-04-17T01:10:46.793Z,10.54
2023-04-17T01:13:13.905Z,10.55
2023-04-17T01:15:42.998Z,10.60
2023-04-17T01:18:10.244Z,10.60
2023-04-17T01:20:37.728Z,10.49
2023-04-17T01:23:04.865Z,10.44
2023-04-17T01:25:31.929Z,10.50
2023-04-17T01:27:59.337Z,10.55
2023-04-17T01:30:28.672Z,10.45
2023-04-17T01:33:01.645Z,10.44
2023-04-17T01:35:29.089Z,10.42
2023-04-17T01:37:56.382Z,10.48
2023-04-17T01:40:23.408Z,10.37
2023-04-17T01:42:50.472Z,10.39
2023-04-17T01:45:17.612Z,10.38
2023-04-17T01:47:44.752Z,10.48
2023-04-17T01:50:12.234Z,10.50
2023-04-17T01:52:39.954Z,10.49
2023-04-17T01:55:07.430Z,10.45
2023-04-17T01:57:34.546Z,10.29
2023-04-17T02:00:01.730Z,10.23
2023-04-17T02:02:39.701Z,10.14
2023-04-17T02:05:07.299Z,10.12
2023-04-17T02:07:34.442Z,10.13
2023-04-17T02:10:01.588Z,10.05
2023-04-17T02:12:28.647Z,9.84
2023-04-17T02:15:00.863Z,9.77
2023-04-17T02:17:28.242Z,9.81
2023-04-17T02:19:55.368Z,9.69
2023-04-17T02:22:22.442Z,9.85
2023-04-17T02:24:49.578Z,10.00
2023-04-17T02:27:17.275Z,9.84
2023-04-17T02:29:44.297Z,9.77
2023-04-17T02:32:11.417Z,9.68
2023-04-17T02:34:38.558Z,9.55
2023-04-17T02:37:06.090Z,9.63
2023-04-17T02:39:35.221Z,9.72
2023-04-17T02:42:03.142Z,9.74
2023-04-17T02:44:30.542Z,9.98
2023-04-17T02:46:58.034Z,9.81
2023-04-17T02:49:26.672Z,9.71
2023-04-17T02:51:53.890Z,9.81
2023-04-17T02:54:21.113Z,9.86
2023-04-17T02:56:48.685Z,9.92
2023-04-17T02:59:15.891Z,9.93
2023-04-17T03:01:43.018Z,9.90
2023-04-17T03:04:10.443Z,9.91
2023-04-17T03:06:37.639Z,9.80
2023-04-17T03:09:04.990Z,9.86
2023-04-17T03:11:32.208Z,9.86
2023-04-17T03:13:59.286Z,9.77
2023-04-17T03:16:26.392Z,9.94
2023-04-17T03:18:55.996Z,9.91
2023-04-17T03:21:23.105Z,9.63
2023-04-17T03:23:50.872Z,9.73
2023-04-17T03:26:20.610Z,9.76
2023-04-17T03:28:48.722Z,9.65
2023-04-17T03:31:16.012Z,9.60
2023-04-17T03:33:43.111Z,9.81
2023-04-17T03:36:10.451Z,9.84
2023-04-17T03:38:38.376Z,9.80
2023-04-17T03:41:07.860Z,9.79
2023-04-17T03:43:34.997Z,9.78
2023-04-17T03:46:02.270Z,9.83
2023-04-17T03:48:30.604Z,9.87
2023-04-17T03:50:57.716Z,9.73
2023-04-17T03:53:24.819Z,9.65
2023-04-17T03:55:53.436Z,9.77
2023-04-17T03:58:27.711Z,9.81
2023-04-17T04:00:55.662Z,9.71
2023-04-17T04:03:26.467Z,9.82
2023-04-17T04:05:54.100Z,9.77
2023-04-17T04:08:21.373Z,9.80
2023-04-17T04:10:51.859Z,9.80
2023-04-17T04:13:25.009Z,9.84
2023-04-17T04:15:56.624Z,9.62
2023-04-17T04:18:26.234Z,9.85
2023-04-17T04:20:53.620Z,9.90
2023-04-17T04:23:46.655Z,9.90
2023-04-17T04:26:18.447Z,10.03
2023-04-17T04:28:51.244Z,9.88
2023-04-17T04:31:29.794Z,9.93
2023-04-17T04:33:59.197Z,10.04
2023-04-17T04:36:30.010Z,10.05
2023-04-17T04:39:10.444Z,10.09
2023-04-17T04:41:38.329Z,10.18
2023-04-17T04:44:08.877Z,10.08
2023-04-17T04:46:38.810Z,10.06
2023-04-17T04:49:06.865Z,10.06
2023-04-17T04:51:34.485Z,10.19
2023-04-17T04:54:04.605Z,10.46
2023-04-17T04:56:33.245Z,10.29
2023-04-17T04:59:00.603Z,10.42
2023-04-17T05:01:30.286Z,10.48
2023-04-17T05:03:57.749Z,10.46
2023-04-17T05:06:28.591Z,10.52
2023-04-17T05:09:00.872Z,10.56
2023-04-17T05:11:28.025Z,10.72
2023-04-17T05:13:55.757Z,10.71
2023-04-17T05:16:26.685Z,10.82
2023-04-17T05:18:53.953Z,10.85
2023-04-17T05:21:32.511Z,10.83
2023-04-17T05:24:01.320Z,10.81
2023-04-17T05:26:28.499Z,10.71
2023-04-17T05:28:55.772Z,10.73
2023-04-17T05:31:27.188Z,10.87
2023-04-17T05:33:55.903Z,11.00
2023-04-17T05:36:22.997Z,10.98
2023-04-17T05:38:52.031Z,10.90
2023-04-17T05:41:19.180Z,10.98
2023-04-17T05:43:46.564Z,11.07
2023-04-17T05:46:13.690Z,11.11
2023-04-17T05:48:43.395Z,11.13
2023-04-17T05:51:10.518Z,11.24
2023-04-17T05:53:38.294Z,11.23
2023-04-17T05:56:05.629Z,11.17
2023-04-17T05:58:36.116Z,11.18
2023-04-17T06:01:06.336Z,11.19
2023-04-17T06:03:34.585Z,11.32
2023-04-17T06:06:10.222Z,11.43
2023-04-17T06:08:37.324Z,11.42
2023-04-17T06:11:05.557Z,11.44
2023-04-17T06:13:33.570Z,11.55
2023-04-17T06:16:00.927Z,11.53
2023-04-17T06:18:28.119Z,11.53
2023-04-17T06:20:55.350Z,11.45
2023-04-17T06:23:22.419Z,11.47
2023-04-17T06:25:49.700Z,11.41
2023-04-17T06:28:16.849Z,11.43
2023-04-17T06:30:44.153Z,11.53
2023-04-17T06:33:11.271Z,11.54
2023-04-17T06:35:38.755Z,11.51
2023-04-17T06:38:15.556Z,11.59
2023-04-17T06:40:43.580Z,11.58
2023-04-17T06:43:11.678Z,11.62
2023-04-17T06:45:42.365Z,11.79
2023-04-17T06:48:09.525Z,11.92
2023-04-17T06:50:36.646Z,12.17
2023-04-17T06:53:03.692Z,12.33
2023-04-17T06:55:30.790Z,12.49
2023-04-17T06:57:57.798Z,12.57
2023-04-17T07:00:24.978Z,12.61
2023-04-17T07:02:52.190Z,12.58
2023-04-17T07:05:19.532Z,12.51
2023-04-17T07:07:47.862Z,12.60
2023-04-17T07:10:16.059Z,12.65
2023-04-17T07:12:43.286Z,12.70
2023-04-17T07:15:10.564Z,12.82
2023-04-17T07:17:37.722Z,12.90
2023-04-17T07:20:05.744Z,12.98
2023-04-17T07:22:34.380Z,13.06
2023-04-17T07:25:01.530Z,13.03
2023-04-17T07:27:29.088Z,13.23
2023-04-17T07:29:56.433Z,13.32
2023-04-17T07:32:26.557Z,13.32
2023-04-17T07:34:53.710Z,13.34
2023-04-17T07:37:21.470Z,13.38
2023-04-17T07:39:49.492Z,13.51
2023-04-17T07:42:16.747Z,13.57
2023-04-17T07:44:43.831Z,13.69
2023-04-17T07:47:11.106Z,13.82
2023-04-17T07:49:40.404Z,13.88
2023-04-17T07:52:07.676Z,14.06
2023-04-17T07:54:34.849Z,14.46
2023-04-17T07:57:03.593Z,14.81
2023-04-17T07:59:30.838Z,15.51
2023-04-17T08:01:58.206Z,15.67
2023-04-17T08:04:26.185Z,16.23
2023-04-17T08:06:53.523Z,16.96
2023-04-17T08:09:21.254Z,17.16
2023-04-17T08:11:56.942Z,17.69
2023-04-17T08:14:25.433Z,17.56
2023-04-17T08:16:52.818Z,18.02
2023-04-17T08:19:20.093Z,18.23
2023-04-17T08:21:47.548Z,17.88
2023-04-17T08:24:15.469Z,17.32
2023-04-17T08:26:43.744Z,16.77
2023-04-17T08:29:11.136Z,16.90
2023-04-17T08:31:39.918Z,16.61
2023-04-17T08:34:14.568Z,16.69
2023-04-17T08:36:43.152Z,16.34
2023-04-17T08:39:12.395Z,16.04
2023-04-17T08:41:42.985Z,15.98
2023-04-17T08:44:10.216Z,15.86
2023-04-17T08:46:38.185Z,15.85
2023-04-17T08:49:05.460Z,15.86
2023-04-17T08:51:32.749Z,15.97
2023-04-17T08:53:59.925Z,15.84
2023-04-17T08:56:28.720Z,15.80
2023-04-17T08:58:55.875Z,15.59
2023-04-17T09:01:23.034Z,15.53
2023-04-17T09:03:52.204Z,15.53
2023-04-17T09:06:19.498Z,15.46
2023-04-17T09:08:59.923Z,15.40
2023-04-17T09:11:27.444Z,15.39
2023-04-17T09:13:54.597Z,15.34
2023-04-17T09:16:22.127Z,15.27
2023-04-17T09:18:49.617Z,15.17
2023-04-17T09:21:18.765Z,15.19
2023-04-17T09:23:48.546Z,15.14
2023-04-17T09:26:16.879Z,15.14
2023-04-17T09:29:00.424Z,15.17
2023-04-17T09:31:30.253Z,15.26
2023-04-17T09:34:01.521Z,15.33
2023-04-17T09:36:30.576Z,15.39
2023-04-17T09:39:00.201Z,15.47
2023-04-17T09:41:28.821Z,15.49
2023-04-17T09:44:05.372Z,15.62
2023-04-17T09:46:40.702Z,15.82
2023-04-17T09:49:07.829Z,16.14
2023-04-17T09:51:35.198Z,16.58
2023-04-17T09:54:06.928Z,16.82
2023-04-17T09:56:35.501Z,16.99
2023-04-17T09:59:03.977Z,17.51
2023-04-17T10:01:32.613Z,18.36
2023-04-17T10:04:00.414Z,18.90
2023-04-17T10:06:28.266Z,19.98
2023-04-17T10:08:55.352Z,21.13
2023-04-17T10:11:24.319Z,21.35
2023-04-17T10:14:12.223Z,21.58
2023-04-17T10:16:40.547Z,21.81
2023-04-17T10:19:27.529Z,21.59
2023-04-17T10:22:13.449Z,21.34
2023-04-17T10:24:40.899Z,21.54
2023-04-17T10:27:26.327Z,21.23
2023-04-17T10:29:54.172Z,21.88
2023-04-17T10:32:24.067Z,22.81
2023-04-17T10:34:52.020Z,23.24
2023-04-17T10:37:19.484Z,23.24
2023-04-17T10:39:53.586Z,22.94
2023-04-17T10:42:21.417Z,23.58
2023-04-17T10:44:48.955Z,22.58
2023-04-17T10:47:19.448Z,21.83
2023-04-17T10:49:58.349Z,21.37
2023-04-17T10:52:31.771Z,21.10
2023-04-17T10:55:04.669Z,20.67
2023-04-17T10:57:50.183Z,21.13
2023-04-17T11:00:18.311Z,21.11
2023-04-17T11:02:46.174Z,20.75
2023-04-17T11:05:13.299Z,20.65
2023-04-17T11:07:41.568Z,20.35
2023-04-17T11:10:09.532Z,20.43
2023-04-17T11:12:36.791Z,21.30
2023-04-17T11:15:04.625Z,22.30
2023-04-17T11:17:31.932Z,22.34
2023-04-17T11:20:00.012Z,22.45
2023-04-17T11:22:33.810Z,22.57
2023-04-17T11:25:00.922Z,22.21
2023-04-17T11:27:28.014Z,22.44
2023-04-17T11:29:55.069Z,21.42
2023-04-17T11:32:22.133Z,22.03
2023-04-17T11:34:49.278Z,21.87
2023-04-17T11:37:16.400Z,21.83
2023-04-17T11:39:43.619Z,21.61
2023-04-17T11:42:10.830Z,21.63
2023-04-17T11:44:42.734Z,21.07
2023-04-17T11:47:10.875Z,21.09
2023-04-17T11:49:39.141Z,20.66
2023-04-17T11:52:06.416Z,20.18
2023-04-17T11:54:37.255Z,20.38
2023-04-17T11:57:11.545Z,20.06
2023-04-17T11:59:39.607Z,19.92
2023-04-17T12:02:07.454Z,19.92
2023-04-17T12:04:36.588Z,19.77
2023-04-17T12:07:04.686Z,19.77
2023-04-17T12:09:32.351Z,19.40
2023-04-17T12:12:06.553Z,20.02
2023-04-17T12:14:33.724Z,19.77
2023-04-17T12:17:01.203Z,19.75
2023-04-17T12:19:31.576Z,19.71
2023-04-17T12:21:59.482Z,19.56
2023-04-17T12:24:26.782Z,19.91
2023-04-17T12:26:54.515Z,19.88
2023-04-17T12:29:36.221Z,19.94
2023-04-17T12:32:10.375Z,19.61
2023-04-17T12:34:37.737Z,19.45
2023-04-17T12:37:04.850Z,19.39
2023-04-17T12:39:32.723Z,19.09
2023-04-17T12:41:59.760Z,19.36
2023-04-17T12:44:26.783Z,19.28
2023-04-17T12:46:53.829Z,19.14
2023-04-17T12:49:21.044Z,18.94
2023-04-17T12:51:48.181Z,18.87
2023-04-17T12:54:15.392Z,18.75
2023-04-17T12:56:42.495Z,18.89
2023-04-17T12:59:10.374Z,18.89
2023-04-17T13:01:37.474Z,18.74
2023-04-17T13:04:04.952Z,18.73
2023-04-17T13:06:32.477Z,18.74
2023-04-17T13:08:59.586Z,18.79
2023-04-17T13:11:26.758Z,18.80
2023-04-17T13:13:53.802Z,18.86
2023-04-17T13:16:23.328Z,18.69
2023-04-17T13:18:50.425Z,18.70
2023-04-17T13:21:17.533Z,18.71
2023-04-17T13:23:44.991Z,18.81
2023-04-17T13:26:14.324Z,18.86
2023-04-17T13:28:41.439Z,18.91
2023-04-17T13:31:08.572Z,18.88
2023-04-17T13:33:35.809Z,18.80
2023-04-17T13:36:02.887Z,18.75
2023-04-17T13:38:30.492Z,18.83
2023-04-17T13:40:57.544Z,18.86
2023-04-17T13:43:24.601Z,18.83
2023-04-17T13:45:54.137Z,18.75
2023-04-17T13:48:22.508Z,18.73
2023-04-17T13:50:49.569Z,18.47
2023-04-17T13:53:16.930Z,18.44
2023-04-17T13:55:44.051Z,18.37
2023-04-17T13:58:11.202Z,18.30
2023-04-17T14:00:38.293Z,18.23
2023-04-17T14:03:05.596Z,18.30
2023-04-17T14:05:33.010Z,18.18
2023-04-17T14:08:00.221Z,17.90
2023-04-17T14:10:27.365Z,17.96
2023-04-17T14:12:54.472Z,18.03
2023-04-17T14:15:21.580Z,17.96
2023-04-17T14:17:48.868Z,17.98
2023-04-17T14:20:17.897Z,17.99
2023-04-17T14:22:45.568Z,18.13
2023-04-17T14:25:13.281Z,18.07
2023-04-17T14:27:40.584Z,17.99
2023-04-17T14:30:08.291Z,17.99
2023-04-17T14:32:35.429Z,17.93
2023-04-17T14:35:02.500Z,18.07
2023-04-17T14:37:29.655Z,18.08
2023-04-17T14:39:56.823Z,18.12
2023-04-17T14:42:23.940Z,17.98
2023-04-17T14:44:51.087Z,18.01
2023-04-17T14:47:18.722Z,17.86
2023-04-17T14:49:45.853Z,17.87
2023-04-17T14:52:12.987Z,17.77
2023-04-17T14:54:40.209Z,17.98
2023-04-17T14:57:07.528Z,17.90
2023-04-17T14:59:34.597Z,17.82
2023-04-17T15:02:01.824Z,17.90
2023-04-17T15:04:29.171Z,17.90
2023-04-17T15:06:56.331Z,17.89
2023-04-17T15:09:23.378Z,18.00
2023-04-17T15:11:50.549Z,17.89
2023-04-17T15:14:17.596Z,17.92
2023-04-17T15:16:44.805Z,17.97
2023-04-17T15:19:12.186Z,18.01
2023-04-17T15:21:39.423Z,17.99
2023-04-17T15:24:06.693Z,17.96
2023-04-17T15:26:33.781Z,17.90
2023-04-17T15:29:01.062Z,17.92
2023-04-17T15:31:28.154Z,17.92
2023-04-17T15:33:55.235Z,17.83
2023-04-17T15:36:22.268Z,17.86
2023-04-17T15:38:51.715Z,17.86
2023-04-17T15:41:19.500Z,17.81
2023-04-17T15:43:46.615Z,17.89
2023-04-17T15:46:13.821Z,17.78
2023-04-17T15:48:40.975Z,17.82
2023-04-17T15:51:09.480Z,17.92
2023-04-17T15:53:36.524Z,17.99
2023-04-17T15:56:03.663Z,17.97
2023-04-17T15:58:30.803Z,17.89
2023-04-17T16:00:57.968Z,17.80
2023-04-17T16:03:25.250Z,17.65
2023-04-17T16:05:54.054Z,17.57
2023-04-17T16:08:21.272Z,17.54
2023-04-17T16:10:48.318Z,17.53
2023-04-17T16:13:16.170Z,17.61
2023-04-17T16:15:43.336Z,17.56
2023-04-17T16:18:10.470Z,17.44
2023-04-17T16:20:39.276Z,17.50
2023-04-17T16:23:06.526Z,17.50
2023-04-17T16:25:33.632Z,17.51
2023-04-17T16:28:00.683Z,17.37
2023-04-17T16:30:27.854Z,17.30
2023-04-17T16:32:55.008Z,17.37
2023-04-17T16:35:22.205Z,17.24
2023-04-17T16:37:49.332Z,17.20
2023-04-17T16:40:17.893Z,17.28
2023-04-17T16:42:45.049Z,17.19
2023-04-17T16:45:12.169Z,17.04
2023-04-17T16:47:39.444Z,17.06
2023-04-17T16:50:07.539Z,17.15
2023-04-17T16:52:35.491Z,17.17
2023-04-17T16:55:02.574Z,17.10
2023-04-17T16:57:31.104Z,17.03
2023-04-17T16:59:58.330Z,17.00
2023-04-17T17:02:25.685Z,17.04
2023-04-17T17:04:52.856Z,17.02
2023-04-17T17:07:19.951Z,16.96
2023-04-17T17:09:47.063Z,16.98
2023-04-17T17:12:14.088Z,16.91
2023-04-17T17:14:41.250Z,16.89
2023-04-17T17:17:08.344Z,16.87
2023-04-17T17:19:35.579Z,16.80
2023-04-17T17:22:02.675Z,16.80
2023-04-17T17:24:30.964Z,16.74
2023-04-17T17:26:58.082Z,16.85
2023-04-17T17:29:25.260Z,16.76
2023-04-17T17:31:52.391Z,16.71
2023-04-17T17:34:25.979Z,16.73
2023-04-17T17:36:53.956Z,16.63
2023-04-17T17:39:22.275Z,16.59
2023-04-17T17:41:49.745Z,16.56
2023-04-17T17:44:17.059Z,16.41
2023-04-17T17:46:44.164Z,16.38
2023-04-17T17:49:11.222Z,16.40
2023-04-17T17:51:38.360Z,16.39
2023-04-17T17:54:05.576Z,16.34
2023-04-17T17:56:32.692Z,16.33
2023-04-17T17:58:59.766Z,16.26
2023-04-17T18:01:26.888Z,16.22
2023-04-17T18:03:54.392Z,16.25
2023-04-17T18:06:21.752Z,16.20
2023-04-17T18:08:49.112Z,16.19
2023-04-17T18:11:16.280Z,16.04
2023-04-17T18:13:43.329Z,15.92
2023-04-17T18:16:10.588Z,15.79
2023-04-17T18:18:38.786Z,15.72
2023-04-17T18:21:09.327Z,15.73
2023-04-17T18:23:36.591Z,15.69
2023-04-17T18:26:03.989Z,15.70
2023-04-17T18:28:31.137Z,15.80
2023-04-17T18:30:58.296Z,15.80
2023-04-17T18:33:25.427Z,15.67
2023-04-17T18:35:52.580Z,15.63
2023-04-17T18:38:19.684Z,15.54
2023-04-17T18:40:46.729Z,15.46
2023-04-17T18:43:13.864Z,15.40
2023-04-17T18:45:41.006Z,15.40
2023-04-17T18:48:08.860Z,15.33
2023-04-17T18:50:38.391Z,15.38
2023-04-17T18:53:05.653Z,15.34
2023-04-17T18:55:33.145Z,15.40
2023-04-17T18:58:00.279Z,15.34
2023-04-17T19:00:27.531Z,15.36
2023-04-17T19:02:56.477Z,15.32
2023-04-17T19:05:26.110Z,15.31
2023-04-17T19:07:53.853Z,15.29
2023-04-17T19:10:21.927Z,15.28
2023-04-17T19:12:50.070Z,15.32
2023-04-17T19:15:17.677Z,15.34
2023-04-17T19:17:46.648Z,15.31
2023-04-17T19:20:16.596Z,15.36
2023-04-17T19:22:45.003Z,15.33
2023-04-17T19:25:12.347Z,15.26
2023-04-17T19:27:40.414Z,15.34
2023-04-17T19:30:08.226Z,15.25
2023-04-17T19:32:37.447Z,15.15
2023-04-17T19:35:05.222Z,15.13
2023-04-17T19:37:35.234Z,15.17
2023-04-17T19:40:08.539Z,15.23
2023-04-17T19:42:42.707Z,15.19
2023-04-17T19:45:10.795Z,15.16
2023-04-17T19:47:40.993Z,15.10
2023-04-17T19:50:11.194Z,15.05
2023-04-17T19:52:38.781Z,15.00
2023-04-17T19:55:07.990Z,15.03
2023-04-17T19:57:35.240Z,14.97
2023-04-17T20:00:03.356Z,14.90
2023-04-17T20:02:39.887Z,14.80
2023-04-17T20:05:07.480Z,14.65
2023-04-17T20:07:35.478Z,14.66
2023-04-17T20:10:03.161Z,14.66
2023-04-17T20:12:32.023Z,14.63
2023-04-17T20:14:59.435Z,14.59
2023-04-17T20:17:27.557Z,14.59
2023-04-17T20:19:55.055Z,14.64
2023-04-17T20:22:22.553Z,14.63
2023-04-17T20:24:50.824Z,14.52
2023-04-17T20:27:18.070Z,14.43
2023-04-17T20:29:45.645Z,14.42
2023-04-17T20:32:13.061Z,14.40
2023-04-17T20:34:40.630Z,14.48
2023-04-17T20:37:07.876Z,14.43
2023-04-17T20:39:35.007Z,14.33
2023-04-17T20:42:03.986Z,14.38
2023-04-17T20:44:31.943Z,14.37
2023-04-17T20:46:59.241Z,14.29
2023-04-17T20:49:26.620Z,14.29
2023-04-17T20:51:53.815Z,14.27
2023-04-17T20:54:20.927Z,14.28
2023-04-17T20:56:48.037Z,14.13
2023-04-17T20:59:15.133Z,14.04
2023-04-17T21:01:42.180Z,14.09
2023-04-17T21:04:10.854Z,14.07
2023-04-17T21:06:38.916Z,13.98
2023-04-17T21:09:06.253Z,13.99
2023-04-17T21:11:33.409Z,13.90
2023-04-17T21:14:01.138Z,13.78
2023-04-17T21:16:29.836Z,13.80
2023-04-17T21:18:57.166Z,13.76
2023-04-17T21:21:24.256Z,13.66
2023-04-17T21:23:51.530Z,13.61
2023-04-17T21:26:18.805Z,13.54
2023-04-17T21:28:46.097Z,13.55
2023-04-17T21:31:13.778Z,13.58
2023-04-17T21:33:40.898Z,13.58
2023-04-17T21:36:08.315Z,13.45
2023-04-17T21:38:35.579Z,13.41
2023-04-17T21:41:02.818Z,13.55
2023-04-17T21:43:30.162Z,13.45
2023-04-17T21:45:57.543Z,13.35
2023-04-17T21:48:24.921Z,13.30
2023-04-17T21:50:52.784Z,13.28
2023-04-17T21:53:19.928Z,13.26
2023-04-17T21:55:47.090Z,13.32
2023-04-17T21:58:32.459Z,13.25
2023-04-17T22:01:01.187Z,13.19
2023-04-17T22:03:30.680Z,13.19
2023-04-17T22:05:58.093Z,13.20
2023-04-17T22:08:25.467Z,13.21
2023-04-17T22:10:52.729Z,13.11
2023-04-17T22:13:21.285Z,13.14
2023-04-17T22:15:49.325Z,13.21
2023-04-17T22:18:16.586Z,13.18
2023-04-17T22:20:44.028Z,13.07
2023-04-17T22:23:11.285Z,13.05
2023-04-17T22:25:38.492Z,13.06
2023-04-17T22:28:05.769Z,13.11
2023-04-17T22:30:33.039Z,13.06
2023-04-17T22:33:00.471Z,13.03
2023-04-17T22:35:27.932Z,12.99
2023-04-17T22:37:55.219Z,12.90
2023-04-17T22:40:22.549Z,12.80
2023-04-17T22:42:50.649Z,12.70
2023-04-17T22:45:17.952Z,12.73
2023-04-17T22:47:45.313Z,12.68
2023-04-17T22:50:14.218Z,12.67
2023-04-17T22:52:41.533Z,12.63
2023-04-17T22:55:08.835Z,12.67
2023-04-17T22:57:36.214Z,12.70
2023-04-17T23:00:03.907Z,12.66
2023-04-17T23:02:31.437Z,12.55
2023-04-17T23:05:00.012Z,12.52
2023-04-17T23:07:27.430Z,12.54
2023-04-17T23:09:54.628Z,12.51
2023-04-17T23:12:21.821Z,12.40
2023-04-17T23:14:49.165Z,12.43
2023-04-17T23:17:16.396Z,12.40
2023-04-17T23:19:43.624Z,12.43
2023-04-17T23:22:10.845Z,12.37
2023-04-17T23:24:38.110Z,12.43
2023-04-17T23:27:05.354Z,12.43
2023-04-17T23:29:32.552Z,12.51
2023-04-17T23:31:59.935Z,12.46
2023-04-17T23:34:27.963Z,12.40
2023-04-17T23:36:55.177Z,12.35
2023-04-17T23:39:22.460Z,12.25
2023-04-17T23:41:49.920Z,12.16
2023-04-17T23:44:17.163Z,12.13
2023-04-17T23:46:44.496Z,12.13
2023-04-17T23:49:11.785Z,12.10
2023-04-17T23:51:39.444Z,12.18
2023-04-17T23:54:08.009Z,12.09
2023-04-17T23:56:35.814Z,12.06
2023-04-17T23:59:03.086Z,12.11
